createdAt,value
2022-08-07T00:00:15.123Z,52
2022-08-07T00:05:15.146Z,52
2022-08-07T00:10:26.777Z,52
2022-08-07T00:15:15.114Z,52
2022-08-07T00:20:15.582Z,52
2022-08-07T00:25:15.759Z,53
2022-08-07T00:30:21.896Z,53
2022-08-07T00:35:15.118Z,53
2022-08-07T00:40:15.111Z,53
2022-08-07T00:45:16.163Z,53
2022-08-07T00:50:17.247Z,53
2022-08-07T00:55:17.353Z,54
2022-08-07T01:00:15.118Z,54
2022-08-07T01:05:18.978Z,54
2022-08-07T01:10:15.120Z,54
2022-08-07T01:15:16.960Z,54
2022-08-07T01:20:16.487Z,54
2022-08-07T01:25:40.233Z,55
2022-08-07T01:30:15.117Z,55
2022-08-07T01:35:17.207Z,55
2022-08-07T01:40:15.105Z,56
2022-08-07T01:45:16.104Z,56
2022-08-07T01:50:15.112Z,56
2022-08-07T01:55:22.123Z,56
2022-08-07T02:00:15.121Z,56
2022-08-07T02:05:15.935Z,56
2022-08-07T02:10:15.104Z,56
2022-08-07T02:15:15.215Z,56
2022-08-07T02:20:17.347Z,57
2022-08-07T02:25:17.238Z,57
2022-08-07T02:30:15.103Z,57
2022-08-07T02:35:15.099Z,57
2022-08-07T02:40:29.653Z,57
2022-08-07T02:45:57.370Z,57
2022-08-07T02:50:15.118Z,58
2022-08-07T02:55:15.233Z,58
2022-08-07T03:00:15.168Z,58
2022-08-07T03:05:20.618Z,58
2022-08-07T03:10:15.120Z,58
2022-08-07T03:15:15.114Z,58
2022-08-07T03:20:15.152Z,58
2022-08-07T03:25:15.117Z,58
2022-08-07T03:30:15.125Z,59
2022-08-07T03:35:17.252Z,59
2022-08-07T03:40:16.835Z,59
2022-08-07T03:45:20.878Z,59
2022-08-07T03:50:15.120Z,59
2022-08-07T03:55:15.115Z,59
2022-08-07T04:00:15.120Z,59
2022-08-07T04:05:15.124Z,59
2022-08-07T04:10:15.273Z,59
2022-08-07T04:15:15.106Z,59
2022-08-07T04:20:15.110Z,58
2022-08-07T04:25:15.117Z,58
2022-08-07T04:30:21.177Z,58
2022-08-07T04:35:15.116Z,58
2022-08-07T04:40:15.107Z,57
2022-08-07T04:45:16.981Z,57
2022-08-07T04:50:15.114Z,57
2022-08-07T04:58:09.120Z,57
2022-08-07T05:00:18.629Z,57
2022-08-07T05:05:52.265Z,56
2022-08-07T05:10:15.357Z,56
2022-08-07T05:15:15.106Z,56
2022-08-07T05:20:15.143Z,56
2022-08-07T05:25:26.422Z,55
2022-08-07T05:30:15.133Z,55
2022-08-07T05:35:15.108Z,55
2022-08-07T05:40:17.485Z,55
2022-08-07T05:45:26.459Z,55
2022-08-07T05:50:15.115Z,54
2022-08-07T05:55:15.111Z,54
2022-08-07T06:00:15.890Z,53
2022-08-07T06:05:15.530Z,53
2022-08-07T06:10:15.654Z,53
2022-08-07T06:15:15.318Z,52
2022-08-07T06:20:25.298Z,52
2022-08-07T06:25:15.114Z,52
2022-08-07T06:30:24.463Z,51
2022-08-07T06:35:17.916Z,51
2022-08-07T06:40:18.075Z,51
2022-08-07T06:45:15.549Z,50
2022-08-07T06:50:15.110Z,50
2022-08-07T06:55:30.367Z,49
2022-08-07T07:00:17.568Z,49
2022-08-07T07:05:15.107Z,49
2022-08-07T07:10:15.112Z,48
2022-08-07T07:15:23.691Z,48
2022-08-07T07:20:15.112Z,48
2022-08-07T07:26:33.629Z,47
2022-08-07T07:30:26.460Z,46
2022-08-07T07:35:15.099Z,46
2022-08-07T07:40:15.597Z,46
2022-08-07T07:45:15.939Z,45
2022-08-07T07:50:31.723Z,45
2022-08-07T07:55:15.105Z,45
2022-08-07T08:00:21.272Z,44
2022-08-07T08:05:15.316Z,44
2022-08-07T08:10:35.448Z,44
2022-08-07T08:15:15.108Z,43
2022-08-07T08:20:16.553Z,44
2022-08-07T08:25:18.974Z,43
2022-08-07T08:30:17.429Z,43
2022-08-07T08:35:15.111Z,42
2022-08-07T08:40:16.268Z,42
2022-08-07T08:45:15.345Z,42
2022-08-07T08:50:17.619Z,41
2022-08-07T08:55:20.735Z,41
2022-08-07T09:00:15.117Z,41
2022-08-07T09:05:15.109Z,40
2022-08-07T09:10:15.125Z,40
2022-08-07T09:16:20.007Z,40
2022-08-07T09:20:35.118Z,40
2022-08-07T09:25:17.772Z,39
2022-08-07T09:30:15.111Z,39
2022-08-07T09:36:01.596Z,39
2022-08-07T09:40:15.212Z,38
2022-08-07T09:46:47.761Z,38
2022-08-07T09:50:18.277Z,38
2022-08-07T09:55:17.180Z,38
2022-08-07T10:00:15.116Z,38
2022-08-07T10:05:15.187Z,37
2022-08-07T10:10:21.058Z,37
2022-08-07T10:15:18.495Z,37
2022-08-07T10:20:15.120Z,37
2022-08-07T10:25:15.106Z,37
2022-08-07T10:30:15.137Z,37
2022-08-07T10:35:16.459Z,37
2022-08-07T10:40:15.183Z,37
2022-08-07T10:45:15.109Z,36
2022-08-07T10:50:15.373Z,35
2022-08-07T10:55:21.309Z,35
2022-08-07T11:00:36.295Z,35
2022-08-07T11:05:15.113Z,36
2022-08-07T11:10:15.114Z,35
2022-08-07T11:15:17.200Z,35
2022-08-07T11:20:15.112Z,36
2022-08-07T11:25:15.110Z,36
2022-08-07T11:30:18.098Z,35
2022-08-07T11:35:16.578Z,35
2022-08-07T11:40:19.047Z,35
2022-08-07T11:45:15.119Z,35
2022-08-07T11:50:30.879Z,35
2022-08-07T11:55:18.784Z,34
2022-08-07T12:00:18.563Z,34
2022-08-07T12:05:28.402Z,34
2022-08-07T12:10:15.119Z,34
2022-08-07T12:15:17.090Z,34
2022-08-07T12:20:18.627Z,33
2022-08-07T12:25:18.034Z,33
2022-08-07T12:30:15.123Z,33
2022-08-07T12:35:15.114Z,33
2022-08-07T12:40:36.616Z,32
2022-08-07T12:45:15.279Z,32
2022-08-07T12:50:33.645Z,32
2022-08-07T12:55:16.429Z,32
2022-08-07T13:00:16.679Z,32
2022-08-07T13:06:02.323Z,31
2022-08-07T13:10:20.244Z,32
2022-08-07T13:15:15.110Z,31
2022-08-07T13:20:15.122Z,30
2022-08-07T13:25:24.429Z,30
2022-08-07T13:30:18.826Z,31
2022-08-07T13:35:15.745Z,31
2022-08-07T13:40:34.778Z,30
2022-08-07T13:46:07.720Z,30
2022-08-07T13:55:19.438Z,29
2022-08-07T14:00:26.557Z,29
2022-08-07T14:05:15.109Z,30
2022-08-07T14:10:24.428Z,29
2022-08-07T14:15:15.105Z,29
2022-08-07T14:20:39.530Z,29
2022-08-07T14:25:15.102Z,29
2022-08-07T14:30:15.323Z,29
2022-08-07T14:35:15.102Z,29
2022-08-07T14:40:25.780Z,29
2022-08-07T14:45:20.980Z,29
2022-08-07T14:50:15.114Z,29
2022-08-07T14:55:17.380Z,28
2022-08-07T15:00:20.556Z,28
2022-08-07T15:05:19.869Z,28
2022-08-07T15:10:15.121Z,28
2022-08-07T15:15:21.424Z,28
2022-08-07T15:20:32.198Z,28
2022-08-07T15:25:18.045Z,28
2022-08-07T15:30:16.139Z,27
2022-08-07T15:35:15.100Z,27
2022-08-07T15:40:18.906Z,26
2022-08-07T15:45:15.111Z,26
2022-08-07T15:50:38.056Z,26
2022-08-07T15:55:15.111Z,27
2022-08-07T16:00:22.572Z,27
2022-08-07T16:05:15.804Z,26
2022-08-07T16:10:15.194Z,27
2022-08-07T16:15:42.052Z,27
2022-08-07T16:20:33.274Z,27
2022-08-07T16:25:22.726Z,27
2022-08-07T16:30:31.309Z,27
2022-08-07T16:35:50.753Z,27
2022-08-07T16:40:18.908Z,27
2022-08-07T16:45:31.212Z,27
2022-08-07T16:50:29.031Z,27
2022-08-07T16:55:15.161Z,27
2022-08-07T17:00:15.470Z,27
2022-08-07T17:05:15.276Z,27
2022-08-07T17:10:30.302Z,27
2022-08-07T17:15:15.527Z,27
2022-08-07T17:20:20.777Z,27
2022-08-07T17:25:15.280Z,28
2022-08-07T17:30:19.299Z,28
2022-08-07T17:35:41.645Z,27
2022-08-07T17:40:15.175Z,28
2022-08-07T17:45:15.200Z,28
2022-08-07T17:50:16.655Z,28
2022-08-07T17:55:15.948Z,28
2022-08-07T18:00:15.156Z,29
2022-08-07T18:05:20.622Z,29
2022-08-07T18:10:27.459Z,30
2022-08-07T18:15:15.115Z,33
2022-08-07T18:21:05.487Z,34
2022-08-07T18:25:19.555Z,34
2022-08-07T18:30:32.138Z,34
2022-08-07T18:35:15.723Z,38
2022-08-07T18:40:18.071Z,39
2022-08-07T18:45:40.662Z,40
2022-08-07T18:50:31.949Z,41
2022-08-07T18:55:41.434Z,41
2022-08-07T19:00:33.645Z,42
2022-08-07T19:05:17.487Z,43
2022-08-07T19:10:18.411Z,43
2022-08-07T19:15:22.914Z,44
2022-08-07T19:20:24.938Z,44
2022-08-07T19:26:22.179Z,45
2022-08-07T19:30:59.778Z,45
2022-08-07T19:35:15.113Z,45
2022-08-07T19:40:15.148Z,45
2022-08-07T19:46:04.623Z,38
2022-08-07T19:50:41.754Z,39
2022-08-07T19:55:15.111Z,38
2022-08-07T20:00:21.938Z,38
2022-08-07T20:05:15.113Z,39
2022-08-07T20:10:34.841Z,38
2022-08-07T20:15:15.735Z,38
2022-08-07T20:20:15.109Z,38
2022-08-07T20:25:20.046Z,38
2022-08-07T20:30:21.668Z,38
2022-08-07T20:35:15.799Z,38
2022-08-07T20:40:31.724Z,38
2022-08-07T20:45:33.928Z,38
2022-08-07T20:50:15.123Z,39
2022-08-07T20:55:15.116Z,39
2022-08-07T21:00:15.185Z,39
2022-08-07T21:05:16.174Z,40
2022-08-07T21:10:15.112Z,40
2022-08-07T21:15:18.618Z,41
2022-08-07T21:20:19.052Z,41
2022-08-07T21:25:15.117Z,41
2022-08-07T21:30:15.113Z,41
2022-08-07T21:35:15.111Z,41
2022-08-07T21:40:15.163Z,41
2022-08-07T21:46:03.224Z,41
2022-08-07T21:50:15.109Z,42
2022-08-07T21:55:15.120Z,42
2022-08-07T22:00:21.945Z,42
2022-08-07T22:05:21.632Z,42
2022-08-07T22:10:15.126Z,42
2022-08-07T22:16:35.521Z,42
2022-08-07T22:20:22.674Z,42
2022-08-07T22:25:15.109Z,42
2022-08-07T22:30:15.117Z,42
2022-08-07T22:35:15.111Z,42
2022-08-07T22:40:15.203Z,42
2022-08-07T22:46:04.930Z,42
2022-08-07T22:50:20.551Z,42
2022-08-07T22:55:17.810Z,43
2022-08-07T23:00:15.187Z,42
2022-08-07T23:06:05.160Z,42
2022-08-07T23:10:35.142Z,42
2022-08-07T23:15:21.812Z,43
2022-08-07T23:20:15.130Z,43
2022-08-07T23:25:15.129Z,43
2022-08-07T23:30:35.471Z,43
2022-08-07T23:35:16.567Z,43
2022-08-07T23:40:15.116Z,43
2022-08-07T23:45:33.606Z,43
2022-08-07T23:50:16.220Z,44
2022-08-07T23:55:46.909Z,44
